Time;durP1;ratioP1;P1;durP2;ratioP2;P2;SDS_P1;SDS_P2;PMS_P1;PMS_P2;Temp;Humidity;BMP_temperature;BMP_pressure;BME280_temperature;BME280_humidity;BME280_pressure;Samples;Min_cycle;Max_cycle;Signal;HPM_P1;HPM_P2
2022/09/10 00:00:00;;;;;;;10.32;6.40;;;;;;;5.14;71.90;100306.88;4898906;29;20055;-62
2022/09/10 00:02:26;;;;;;;14.57;6.93;;;;;;;5.21;71.57;100310.44;4882080;29;20053;-62
2022/09/10 00:04:52;;;;;;;11.73;7.28;;;;;;;5.24;70.95;100310.09;4898672;29;20048;-62
2022/09/10 00:07:17;;;;;;;17.50;9.98;;;;;;;5.26;71.01;100312.53;4897541;29;20056;-62
2022/09/10 00:09:44;;;;;;;17.75;8.23;;;;;;;5.25;71.26;100310.91;4898706;29;20045;-62
2022/09/10 00:12:09;;;;;;;12.07;6.43;;;;;;;5.27;71.35;100311.53;4898819;29;20059;-62
2022/09/10 00:14:35;;;;;;;10.52;6.45;;;;;;;5.26;70.58;100315.16;4897314;29;20048;-62
2022/09/10 00:17:01;;;;;;;13.35;6.75;;;;;;;5.30;71.02;100315.63;4898772;29;20109;-61
2022/09/10 00:19:30;;;;;;;11.60;6.60;;;;;;;5.35;70.72;100310.63;4898373;29;20162;-62
2022/09/10 00:21:56;;;;;;;13.40;6.82;;;;;;;5.37;70.27;100319.16;4898712;29;20047;-61
2022/09/10 00:24:22;;;;;;;11.80;6.75;;;;;;;5.39;70.11;100311.91;4898574;29;20499;-62
2022/09/10 00:26:48;;;;;;;11.13;6.57;;;;;;;5.39;70.66;100315.34;4897047;29;20053;-61
2022/09/10 00:29:17;;;;;;;10.32;6.88;;;;;;;5.40;70.12;100310.91;4897266;29;20467;-62
2022/09/10 00:31:43;;;;;;;13.63;7.40;;;;;;;5.39;70.58;100310.09;4897113;29;20044;-61
2022/09/10 00:34:11;;;;;;;12.90;6.90;;;;;;;5.41;70.53;100307.28;4898399;29;20139;-61
2022/09/10 00:36:39;;;;;;;12.85;8.05;;;;;;;5.38;70.04;100313.72;4898349;29;20053;-61
2022/09/10 00:39:08;;;;;;;12.93;7.75;;;;;;;5.36;71.20;100310.47;4898333;29;20044;-62
2022/09/10 00:41:36;;;;;;;11.07;7.65;;;;;;;5.34;71.10;100315.06;4898118;29;20568;-61
2022/09/10 00:44:05;;;;;;;15.43;7.70;;;;;;;5.34;71.25;100312.44;4881045;29;20060;-62
2022/09/10 00:46:41;;;;;;;14.38;7.88;;;;;;;5.36;70.93;100309.66;4898280;29;20068;-61
2022/09/10 00:49:19;;;;;;;10.88;7.65;;;;;;;5.36;70.29;100309.66;4927515;29;20636;-61
2022/09/10 00:51:45;;;;;;;10.98;7.57;;;;;;;5.39;70.64;100317.16;4896531;29;20415;-62
2022/09/10 00:54:12;;;;;;;11.10;6.95;;;;;;;5.39;70.83;100319.81;4896528;29;20055;-62
2022/09/10 00:56:38;;;;;;;11.35;6.70;;;;;;;5.38;70.37;100323.41;4880932;29;20055;-62
2022/09/10 00:59:04;;;;;;;10.40;6.75;;;;;;;5.36;70.32;100320.97;4896446;29;20045;-62
2022/09/10 01:01:32;;;;;;;14.05;8.05;;;;;;;5.32;70.59;100324.13;4912332;29;20103;-62
2022/09/10 01:03:58;;;;;;;14.65;8.07;;;;;;;5.29;70.99;100317.41;4881026;29;20490;-60
2022/09/10 01:06:24;;;;;;;12.77;8.15;;;;;;;5.27;71.01;100324.69;4896385;29;20055;-62
2022/09/10 01:08:50;;;;;;;12.65;7.60;;;;;;;5.27;71.23;100319.44;4896290;29;20100;-62
2022/09/10 01:11:30;;;;;;;9.00;6.25;;;;;;;5.25;70.50;100313.53;4880776;29;20200;-62
2022/09/10 01:14:20;;;;;;;10.40;7.47;;;;;;;5.24;70.82;100317.16;4896636;29;20387;-61
2022/09/10 01:16:58;;;;;;;15.93;7.55;;;;;;;5.24;70.29;100317.16;4880793;29;20131;-61
2022/09/10 01:19:33;;;;;;;13.55;7.05;;;;;;;5.24;71.05;100315.34;4911999;29;20534;-62
2022/09/10 01:22:31;;;;;;;8.68;6.53;;;;;;;5.23;70.95;100321.59;4880291;29;20044;-62
2022/09/10 01:25:21;;;;;;;11.30;7.85;;;;;;;5.22;70.00;100322.59;4927549;29;20052;-62
2022/09/10 01:27:47;;;;;;;;;;;;;;;5.20;70.55;100329.00;4881283;29;20045;-61
2022/09/10 01:30:22;;;;;;;13.00;7.15;;;;;;;5.15;70.90;100323.50;4911759;29;19927;-62
2022/09/10 01:33:10;;;;;;;9.45;6.55;;;;;;;5.15;70.91;100326.94;4881101;29;20052;-62
2022/09/10 01:35:45;;;;;;;10.48;6.50;;;;;;;5.15;70.49;100331.38;4880177;29;20080;-62
2022/09/10 01:38:19;;;;;;;18.75;8.90;;;;;;;5.15;70.94;100331.38;4880303;29;20115;-62
2022/09/10 01:40:46;;;;;;;16.23;7.72;;;;;;;5.15;70.90;100331.38;4880490;29;20041;-62
2022/09/10 01:43:17;;;;;;;;;;;;;;;5.15;70.32;100336.63;4881042;29;20060;-61
2022/09/10 01:46:18;;;;;;;9.73;6.25;;;;;;;5.15;70.16;100337.44;4880184;29;19981;-61
2022/09/10 01:49:04;;;;;;;9.80;6.10;;;;;;;5.12;70.19;100334.38;4895700;29;20140;-62
2022/09/10 01:51:35;;;;;;;11.77;6.65;;;;;;;5.10;70.58;100331.09;4895603;29;20044;-62
2022/09/10 01:54:24;;;;;;;13.35;6.97;;;;;;;5.09;70.54;100332.91;4911574;29;20399;-62
2022/09/10 01:57:16;;;;;;;12.13;7.00;;;;;;;5.09;70.90;100329.44;4895617;29;20049;-62
2022/09/10 01:59:47;;;;;;;10.45;6.05;;;;;;;5.07;71.12;100326.19;4878985;29;20104;-62
2022/09/10 02:02:43;;;;;;;11.90;6.95;;;;;;;5.07;70.96;100329.63;4896954;29;20119;-62
2022/09/10 02:05:10;;;;;;;13.93;7.85;;;;;;;5.06;71.37;100328.00;4879836;29;20051;-62
2022/09/10 02:07:38;;;;;;;12.85;7.72;;;;;;;5.06;71.31;100330.63;4895283;29;20108;-62
2022/09/10 02:10:08;;;;;;;19.45;9.35;;;;;;;5.03;71.10;100323.13;4895228;29;20052;-63
2022/09/10 02:12:39;;;;;;;16.45;8.80;;;;;;;5.02;71.29;100329.34;4895178;29;20052;-62
2022/09/10 02:15:27;;;;;;;14.32;9.18;;;;;;;4.97;71.78;100323.78;4894991;29;20048;-62
2022/09/10 02:18:00;;;;;;;20.77;9.90;;;;;;;4.95;71.43;100329.25;4881143;29;20058;-61
2022/09/10 02:20:26;;;;;;;11.68;7.53;;;;;;;4.94;71.48;100324.16;4911161;29;20049;-61
2022/09/10 02:22:55;;;;;;;21.17;10.02;;;;;;;4.93;71.41;100325.16;4896590;29;20049;-62
2022/09/10 02:25:24;;;;;;;14.10;9.18;;;;;;;4.84;71.98;100306.03;4880228;29;20124;-62
2022/09/10 02:27:55;;;;;;;18.38;10.38;;;;;;;4.85;72.14;100323.41;4894979;29;20236;-62
2022/09/10 02:30:23;;;;;;;18.85;10.93;;;;;;;4.83;71.61;100325.41;4895169;29;20040;-63
2022/09/10 02:32:49;;;;;;;15.73;9.52;;;;;;;4.80;72.49;100320.50;4895518;29;20128;-62
2022/09/10 02:35:15;;;;;;;13.10;9.07;;;;;;;4.75;72.39;100309.72;4895171;29;20463;-62
2022/09/10 02:37:43;;;;;;;23.52;11.00;;;;;;;4.76;71.96;100314.81;4864689;29;20072;-61
2022/09/10 02:40:10;;;;;;;15.63;9.77;;;;;;;4.73;72.54;100312.50;4894926;29;20119;-62
2022/09/10 02:42:37;;;;;;;14.40;8.90;;;;;;;4.69;72.46;100313.84;4910724;29;20053;-62
2022/09/10 02:45:04;;;;;;;15.48;9.63;;;;;;;4.70;72.54;100317.28;4895948;29;20052;-62
2022/09/10 02:47:30;;;;;;;15.57;8.80;;;;;;;4.65;71.85;100312.59;4896406;29;20068;-61
2022/09/10 02:49:56;;;;;;;33.08;15.55;;;;;;;4.59;71.66;100312.44;4894750;29;20464;-63
2022/09/10 02:52:22;;;;;;;22.33;11.32;;;;;;;4.54;72.74;100308.56;4894957;29;20048;-62
2022/09/10 02:54:51;;;;;;;21.90;12.45;;;;;;;4.51;72.51;100310.72;4895092;29;20518;-61
2022/09/10 02:57:16;;;;;;;25.05;11.20;;;;;;;4.55;73.03;100314.63;4894850;29;20044;-62
2022/09/10 02:59:42;;;;;;;12.40;9.68;;;;;;;4.63;72.17;100321.63;4879072;29;20058;-63
2022/09/10 03:02:10;;;;;;;27.48;13.25;;;;;;;4.74;71.95;100315.97;4879388;29;20047;-62
2022/09/10 03:04:37;;;;;;;20.08;9.07;;;;;;;4.88;71.81;100312.56;4895147;29;20053;-63
2022/09/10 03:07:03;;;;;;;18.92;10.35;;;;;;;5.07;70.82;100313.06;4894917;29;20050;-61
2022/09/10 03:09:29;;;;;;;19.35;11.20;;;;;;;5.19;70.16;100319.50;4894770;29;20056;-63
2022/09/10 03:11:54;;;;;;;32.08;14.30;;;;;;;5.27;69.29;100319.44;4897192;29;20048;-62
2022/09/10 03:14:22;;;;;;;29.95;13.55;;;;;;;5.33;68.70;100310.81;4882957;29;20051;-62
2022/09/10 03:16:48;;;;;;;35.63;15.50;;;;;;;5.40;68.99;100316.97;4899938;29;20050;-62
2022/09/10 03:19:14;;;;;;;34.83;12.27;;;;;;;5.52;68.67;100324.41;4867310;29;20139;-61
2022/09/10 03:21:40;;;;;;;36.55;14.65;;;;;;;5.67;67.68;100326.03;4899806;29;20045;-61
2022/09/10 03:24:10;;;;;;;31.02;13.70;;;;;;;5.65;67.38;100288.59;4898388;29;20048;-62
2022/09/10 03:26:36;;;;;;;33.03;14.50;;;;;;;6.04;66.20;100323.50;4898380;29;20051;-62
2022/09/10 03:29:03;;;;;;;42.40;14.52;;;;;;;6.19;66.39;100320.84;4898509;29;20451;-61
2022/09/10 03:31:34;;;;;;;27.92;12.68;;;;;;;6.38;64.80;100325.50;4898384;29;20044;-61
2022/09/10 03:34:00;;;;;;;29.38;13.10;;;;;;;6.62;64.15;100321.69;4898175;29;20526;-62
2022/09/10 03:36:30;;;;;;;23.05;12.65;;;;;;;6.84;64.29;100322.47;4898222;29;20276;-62
2022/09/10 03:38:59;;;;;;;37.38;12.38;;;;;;;7.05;63.06;100313.72;4914207;29;20082;-61
2022/09/10 03:41:27;;;;;;;31.33;13.93;;;;;;;7.14;62.05;100322.31;4898241;29;20044;-62
2022/09/10 03:43:56;;;;;;;35.35;14.75;;;;;;;7.21;61.71;100329.28;4898332;29;20116;-61
2022/09/10 03:46:23;;;;;;;33.63;14.90;;;;;;;7.22;61.73;100322.16;4898416;29;20044;-60
2022/09/10 03:48:49;;;;;;;40.50;14.55;;;;;;;7.25;62.02;100322.59;4898225;29;20565;-61
2022/09/10 03:51:19;;;;;;;38.90;15.20;;;;;;;7.35;61.78;100321.44;4898101;29;20048;-62
2022/09/10 03:53:45;;;;;;;29.77;12.82;;;;;;;7.43;61.41;100324.75;4899289;29;20048;-61
2022/09/10 03:56:11;;;;;;;25.50;11.80;;;;;;;7.51;61.18;100326.41;4882091;29;20180;-61
2022/09/10 03:58:38;;;;;;;16.65;9.10;;;;;;;7.64;60.65;100325.66;4913350;29;20127;-62
2022/09/10 04:01:03;;;;;;;19.55;9.48;;;;;;;7.84;60.59;100331.06;4897798;29;20128;-61
2022/09/10 04:03:32;;;;;;;28.33;13.32;;;;;;;7.97;60.72;100331.09;4882542;29;20142;-63
2022/09/10 04:05:58;;;;;;;28.63;13.90;;;;;;;8.06;61.11;100326.44;4882004;29;20585;-62
2022/09/10 04:08:24;;;;;;;25.50;13.25;;;;;;;8.16;60.96;100329.56;4866505;29;20139;-63
2022/09/10 04:10:51;;;;;;;21.80;12.75;;;;;;;8.23;60.61;100332.22;4897613;29;20048;-62
2022/09/10 04:13:16;;;;;;;20.35;12.52;;;;;;;8.26;60.98;100324.69;4897528;29;20053;-61
2022/09/10 04:15:45;;;;;;;26.48;12.32;;;;;;;8.28;60.16;100327.97;4913074;29;20048;-60
2022/09/10 04:18:11;;;;;;;21.85;10.30;;;;;;;8.26;60.15;100323.88;4913046;29;20527;-61
2022/09/10 04:20:37;;;;;;;20.83;11.60;;;;;;;8.27;61.42;100320.25;4897538;29;20052;-62
2022/09/10 04:23:07;;;;;;;;;;;;;;;8.32;61.78;100321.25;4881073;29;20115;-62
2022/09/10 04:25:35;;;;;;;20.02;10.20;;;;;;;8.31;61.10;100318.81;4897623;29;19923;-63
2022/09/10 04:28:02;;;;;;;17.50;10.30;;;;;;;8.33;62.06;100325.53;4897109;29;20052;-63
2022/09/10 04:30:29;;;;;;;27.05;10.88;;;;;;;8.47;61.86;100330.88;4897174;29;20511;-62
2022/09/10 04:32:55;;;;;;;17.23;9.55;;;;;;;8.54;62.05;100329.06;4897007;29;20048;-62
2022/09/10 04:35:21;;;;;;;17.38;9.23;;;;;;;8.64;61.53;100324.19;4898282;29;20132;-62
2022/09/10 04:37:47;;;;;;;15.27;8.30;;;;;;;8.72;60.83;100331.94;4898649;29;20045;-61
2022/09/10 04:40:13;;;;;;;13.90;7.70;;;;;;;8.65;60.32;100328.47;4897022;29;20052;-63
2022/09/10 04:42:39;;;;;;;9.05;6.32;;;;;;;8.62;58.77;100329.69;4897069;29;20066;-62
2022/09/10 04:45:05;;;;;;;8.68;5.35;;;;;;;8.61;59.21;100337.81;4928449;29;20147;-63
2022/09/10 04:47:33;;;;;;;8.50;6.30;;;;;;;8.61;58.65;100335.16;4912329;29;20044;-63
2022/09/10 04:49:59;;;;;;;7.80;5.50;;;;;;;8.59;58.65;100334.56;4896911;29;20564;-64
2022/09/10 04:52:25;;;;;;;9.70;5.43;;;;;;;8.56;58.44;100334.94;4928226;29;20414;-63
2022/09/10 04:54:51;;;;;;;8.38;5.35;;;;;;;8.52;58.65;100339.03;4912336;29;20052;-63
2022/09/10 04:57:17;;;;;;;10.88;5.80;;;;;;;8.48;59.15;100337.81;4881052;29;20040;-62
2022/09/10 04:59:43;;;;;;;8.95;5.60;;;;;;;8.50;59.30;100339.25;4896855;29;20048;-64
2022/09/10 05:02:09;;;;;;;11.25;5.70;;;;;;;8.49;59.96;100339.41;4863492;29;20041;-63
2022/09/10 05:04:36;;;;;;;12.60;5.30;;;;;;;8.54;59.99;100344.94;4880562;29;20040;-63
2022/09/10 05:07:03;;;;;;;9.25;5.40;;;;;;;8.54;60.31;100343.09;4877913;29;20044;-62
2022/09/10 05:09:30;;;;;;;8.65;5.47;;;;;;;8.54;60.50;100345.75;4878976;29;20519;-63
2022/09/10 05:11:57;;;;;;;10.95;6.07;;;;;;;8.57;60.82;100345.34;4878991;29;20068;-62
2022/09/10 05:14:24;;;;;;;8.68;5.78;;;;;;;8.56;60.82;100349.00;4880597;29;20076;-63
2022/09/10 05:16:50;;;;;;;9.48;5.57;;;;;;;8.51;60.97;100343.50;4864614;29;20083;-62
2022/09/10 05:19:16;;;;;;;9.32;6.70;;;;;;;8.56;61.25;100342.88;4886412;29;20361;-63
2022/09/10 05:21:47;;;;;;;;;;;;;;;8.61;60.19;100345.75;4872138;29;20136;-63
2022/09/10 05:24:13;;;;;;;11.52;5.45;;;;;;;8.67;60.65;100342.28;4871446;29;19928;-62
2022/09/10 05:26:41;;;;;;;7.63;4.72;;;;;;;8.75;60.27;100341.28;4885472;29;20288;-62
2022/09/10 05:29:09;;;;;;;6.90;4.78;;;;;;;8.80;60.20;100339.69;4889130;29;20056;-63
2022/09/10 05:31:36;;;;;;;9.32;4.65;;;;;;;8.86;59.53;100341.50;4888084;29;20419;-64
2022/09/10 05:34:02;;;;;;;8.73;4.63;;;;;;;8.93;58.94;100349.44;4884950;29;20037;-62
2022/09/10 05:36:32;;;;;;;5.82;4.15;;;;;;;8.97;59.68;100349.84;4882637;29;20403;-63
2022/09/10 05:38:59;;;;;;;8.43;4.68;;;;;;;9.02;60.18;100345.56;4877395;29;20410;-61
2022/09/10 05:41:27;;;;;;;11.80;4.90;;;;;;;9.10;59.68;100350.66;4877025;29;20503;-61
2022/09/10 05:43:54;;;;;;;7.32;4.70;;;;;;;9.18;59.50;100354.13;4861372;29;20536;-65
2022/09/10 05:46:21;;;;;;;7.95;4.28;;;;;;;9.26;58.90;100345.97;4861862;29;20151;-62
2022/09/10 05:48:52;;;;;;;7.10;4.68;;;;;;;9.27;59.50;100342.31;4879459;29;20424;-62
2022/09/10 05:51:18;;;;;;;7.80;5.20;;;;;;;9.37;59.07;100345.34;4882765;29;20041;-63
2022/09/10 05:53:45;;;;;;;10.10;4.70;;;;;;;9.41;57.44;100336.00;4895652;29;20100;-63
2022/09/10 05:56:11;;;;;;;7.43;3.40;;;;;;;9.46;57.86;100343.31;4895000;29;20045;-63
2022/09/10 05:58:39;;;;;;;6.72;4.13;;;;;;;9.54;57.13;100343.09;4895816;29;20447;-61
2022/09/10 06:01:06;;;;;;;5.63;3.60;;;;;;;9.65;57.24;100347.75;4895505;29;20529;-62
2022/09/10 06:03:33;;;;;;;6.70;4.00;;;;;;;9.74;56.91;100343.03;4864952;29;20463;-60
2022/09/10 06:06:00;;;;;;;5.10;3.85;;;;;;;9.82;56.50;100348.09;4895661;29;20068;-62
2022/09/10 06:08:31;;;;;;;4.00;3.25;;;;;;;9.80;56.04;100341.41;4895662;29;20056;-63
2022/09/10 06:11:03;;;;;;;7.35;5.22;;;;;;;9.83;56.12;100349.72;4895412;29;20048;-61
2022/09/10 06:13:37;;;;;;;5.38;2.85;;;;;;;9.91;55.79;100353.97;4894615;29;20052;-63
2022/09/10 06:16:03;;;;;;;5.18;3.00;;;;;;;9.99;55.66;100346.59;4886832;29;20044;-62
2022/09/10 06:18:31;;;;;;;5.93;3.85;;;;;;;10.00;55.48;100350.91;4885573;29;20492;-62
2022/09/10 06:21:06;;;;;;;4.85;2.88;;;;;;;10.08;55.13;100349.03;4885678;29;20055;-61
2022/09/10 06:23:32;;;;;;;3.55;2.95;;;;;;;10.09;56.06;100348.81;4871028;29;20514;-62
2022/09/10 06:26:12;;;;;;;3.33;2.80;;;;;;;10.20;55.41;100348.13;4861183;29;20053;-61
2022/09/10 06:28:39;;;;;;;5.22;3.60;;;;;;;10.24;55.36;100341.41;4860641;29;20060;-62
2022/09/10 06:31:06;;;;;;;7.47;3.67;;;;;;;10.32;55.65;100343.00;4876176;29;20052;-62
2022/09/10 06:33:34;;;;;;;4.22;3.00;;;;;;;10.41;54.82;100338.28;4861196;29;20101;-61
2022/09/10 06:36:02;;;;;;;5.38;3.85;;;;;;;10.49;54.36;100338.03;4892305;29;20135;-62
2022/09/10 06:38:29;;;;;;;8.85;4.60;;;;;;;10.57;54.73;100336.97;4895198;29;20048;-63
2022/09/10 06:40:59;;;;;;;5.78;3.53;;;;;;;10.60;54.87;100332.06;4895126;29;20052;-62
2022/09/10 06:43:31;;;;;;;6.70;3.85;;;;;;;10.66;54.53;100341.81;4887620;29;20048;-59
2022/09/10 06:46:14;;;;;;;8.63;3.80;;;;;;;10.76;54.58;100336.00;4893362;29;20048;-62
2022/09/10 06:48:49;;;;;;;5.88;4.32;;;;;;;10.87;54.08;100334.50;4902054;29;20527;-64
2022/09/10 06:51:17;;;;;;;5.18;3.15;;;;;;;10.93;54.14;100346.09;4900787;29;20052;-63
2022/09/10 06:53:46;;;;;;;7.00;3.88;;;;;;;10.96;53.23;100341.16;4902235;29;20539;-63
2022/09/10 06:56:14;;;;;;;5.10;3.67;;;;;;;11.03;53.19;100336.63;4885970;29;20071;-63
2022/09/10 06:58:41;;;;;;;5.10;4.05;;;;;;;11.09;53.27;100342.94;4932790;29;20052;-61
2022/09/10 07:01:13;;;;;;;6.68;3.80;;;;;;;11.17;52.67;100333.84;4916960;29;20040;-64
2022/09/10 07:03:42;;;;;;;5.85;4.10;;;;;;;11.18;51.67;100346.09;4900965;29;20499;-63
2022/09/10 07:06:12;;;;;;;7.13;3.25;;;;;;;11.11;51.15;100333.69;4901014;29;20104;-63
2022/09/10 07:08:38;;;;;;;5.38;4.00;;;;;;;11.23;51.00;100327.69;4916769;29;20060;-63
2022/09/10 07:11:07;;;;;;;7.00;3.75;;;;;;;11.32;50.13;100339.63;4885173;29;20525;-64
2022/09/10 07:13:34;;;;;;;5.47;4.00;;;;;;;11.35;51.40;100333.88;4900836;29;20048;-61
2022/09/10 07:16:00;;;;;;;5.72;4.18;;;;;;;11.40;50.98;100331.41;4885488;29;20051;-64
2022/09/10 07:18:28;;;;;;;6.65;3.92;;;;;;;11.35;50.19;100331.22;4900807;29;20055;-63
2022/09/10 07:21:05;;;;;;;5.85;3.30;;;;;;;11.41;50.70;100335.66;4885446;29;20094;-63
2022/09/10 07:23:32;;;;;;;7.55;3.35;;;;;;;11.45;49.67;100334.22;4885777;29;20502;-64
2022/09/10 07:26:08;;;;;;;5.78;3.42;;;;;;;11.51;49.25;100338.63;4901036;29;20044;-62
2022/09/10 07:28:38;;;;;;;7.88;4.20;;;;;;;11.55;49.92;100325.72;4932556;29;20052;-61
2022/09/10 07:31:12;;;;;;;6.50;3.90;;;;;;;11.57;50.04;100331.63;4901015;29;20076;-63
2022/09/10 07:33:38;;;;;;;11.90;3.67;;;;;;;11.56;50.08;100322.88;4916580;29;20083;-64
2022/09/10 07:36:05;;;;;;;5.80;3.85;;;;;;;11.63;49.50;100322.78;4900821;29;20085;-63
2022/09/10 07:38:31;;;;;;;6.22;3.20;;;;;;;11.61;50.34;100303.59;4885496;29;20040;-62
2022/09/10 07:40:59;;;;;;;8.00;4.10;;;;;;;11.83;49.88;100323.38;4900691;29;20044;-63
2022/09/10 07:43:25;;;;;;;5.78;3.58;;;;;;;11.91;49.40;100322.31;4885187;29;20095;-64
2022/09/10 07:45:53;;;;;;;7.38;3.80;;;;;;;11.96;49.12;100317.09;4916831;29;20518;-63
2022/09/10 07:48:19;;;;;;;5.60;3.22;;;;;;;12.05;49.12;100330.91;4869560;29;20055;-64
2022/09/10 07:50:45;;;;;;;4.95;2.95;;;;;;;12.15;49.01;100323.22;4900772;29;20411;-64
2022/09/10 07:53:16;;;;;;;5.40;3.20;;;;;;;12.10;48.61;100320.41;4900723;29;20517;-62
2022/09/10 07:55:44;;;;;;;3.65;3.10;;;;;;;12.18;47.71;100322.78;4916184;29;20052;-62
2022/09/10 07:58:10;;;;;;;4.22;2.80;;;;;;;12.27;46.91;100315.28;4898479;29;20411;-63
2022/09/10 08:00:41;;;;;;;3.55;2.50;;;;;;;12.41;46.73;100324.72;4897806;29;20131;-63
2022/09/10 08:03:10;;;;;;;4.60;3.10;;;;;;;12.50;47.23;100315.38;4897746;29;20045;-63
2022/09/10 08:05:38;;;;;;;4.75;2.72;;;;;;;12.68;46.51;100309.16;4882191;29;20049;-63
2022/09/10 08:08:05;;;;;;;3.72;2.58;;;;;;;12.81;46.04;100315.31;4897633;29;20052;-62
2022/09/10 08:10:30;;;;;;;3.83;2.33;;;;;;;12.84;45.87;100305.00;4913380;29;20047;-63
2022/09/10 08:12:58;;;;;;;3.60;2.70;;;;;;;12.92;44.99;100307.34;4897593;29;20056;-62
2022/09/10 08:15:24;;;;;;;3.70;2.60;;;;;;;13.06;45.30;100309.75;4897703;29;20052;-62
2022/09/10 08:17:51;;;;;;;2.92;2.40;;;;;;;13.07;45.12;100301.56;4897404;29;20087;-63
2022/09/10 08:20:18;;;;;;;4.28;2.85;;;;;;;13.11;44.92;100293.91;4897271;29;20157;-63
2022/09/10 08:22:44;;;;;;;2.88;2.28;;;;;;;13.13;45.25;100297.16;4898920;29;20542;-64
2022/09/10 08:25:10;;;;;;;4.30;2.25;;;;;;;13.22;45.12;100300.28;4881751;29;20158;-63
2022/09/10 08:27:37;;;;;;;4.40;2.60;;;;;;;13.28;45.12;100294.06;4897293;29;20099;-63
2022/09/10 08:30:07;;;;;;;8.40;3.20;;;;;;;13.33;44.95;100295.00;4896765;29;20044;-63
2022/09/10 08:32:34;;;;;;;4.20;2.80;;;;;;;13.35;44.63;100290.25;4897083;29;20506;-63
2022/09/10 08:35:03;;;;;;;6.95;3.03;;;;;;;13.27;45.15;100287.13;4898076;29;20482;-63
2022/09/10 08:37:32;;;;;;;4.68;2.80;;;;;;;13.23;44.77;100291.25;4881615;29;20466;-62
2022/09/10 08:39:58;;;;;;;6.93;3.00;;;;;;;13.21;44.42;100288.84;4897022;29;20044;-63
2022/09/10 08:42:52;;;;;;;5.22;2.53;;;;;;;13.15;45.13;100289.78;4898493;29;20050;-63
2022/09/10 08:45:27;;;;;;;6.07;2.60;;;;;;;13.05;45.43;100285.00;4880999;29;20084;-63
2022/09/10 08:48:15;;;;;;;2.60;2.28;;;;;;;13.13;45.05;100282.00;4881281;29;20052;-63
2022/09/10 08:51:09;;;;;;;2.88;2.15;;;;;;;13.14;45.07;100280.16;4881238;29;20396;-63
2022/09/10 08:53:52;;;;;;;3.42;2.40;;;;;;;13.15;44.81;100276.47;4896808;29;20221;-63
2022/09/10 08:56:21;;;;;;;3.80;2.80;;;;;;;13.17;44.61;100272.50;4896711;29;20135;-62
2022/09/10 08:58:56;;;;;;;7.82;3.60;;;;;;;13.22;44.28;100279.00;4896442;29;20594;-62
2022/09/10 09:01:30;;;;;;;3.50;2.83;;;;;;;13.27;44.09;100276.47;4881170;29;20059;-63
2022/09/10 09:03:57;;;;;;;5.40;2.95;;;;;;;13.31;44.29;100259.78;4896748;29;20056;-63
2022/09/10 09:06:47;;;;;;;6.15;2.63;;;;;;;13.37;44.67;100266.84;4896678;29;20052;-62
2022/09/10 09:09:14;;;;;;;5.30;2.55;;;;;;;13.44;43.86;100260.56;4880596;29;20598;-62
2022/09/10 09:12:15;;;;;;;4.60;2.30;;;;;;;13.46;43.82;100259.28;4896453;29;20474;-62
2022/09/10 09:15:00;;;;;;;3.00;2.00;;;;;;;13.47;44.47;100257.44;4892204;29;20518;-63
2022/09/10 09:17:59;;;;;;;13.05;2.58;;;;;;;13.45;43.91;100257.69;4880721;29;20045;-63
2022/09/10 09:20:48;;;;;;;2.28;2.00;;;;;;;13.54;43.38;100252.81;4896259;29;20049;-65
2022/09/10 09:23:23;;;;;;;2.10;1.90;;;;;;;13.48;43.53;100253.75;4881033;29;20048;-64
2022/09/10 09:25:57;;;;;;;3.95;1.80;;;;;;;13.48;43.83;100248.41;4896226;29;20127;-64
2022/09/10 09:28:44;;;;;;;5.47;2.20;;;;;;;13.56;43.59;100250.69;4911804;29;20076;-65
2022/09/10 09:31:13;;;;;;;2.80;2.20;;;;;;;13.62;43.91;100253.25;4880502;29;20388;-69
2022/09/10 09:33:40;;;;;;;1.93;1.63;;;;;;;13.60;42.80;100249.19;4896007;29;20049;-69
2022/09/10 09:36:14;;;;;;;2.00;1.75;;;;;;;13.54;42.76;100248.28;4897414;29;20292;-69
2022/09/10 09:38:44;;;;;;;2.22;1.77;;;;;;;13.53;42.62;100245.84;4896148;29;20048;-65
2022/09/10 09:41:39;;;;;;;4.80;2.20;;;;;;;13.51;42.68;100242.63;4881039;29;20074;-73
2022/09/10 09:44:14;;;;;;;2.90;1.90;;;;;;;13.55;42.94;100247.22;4886241;29;20514;-70
2022/09/10 09:46:41;;;;;;;3.95;1.98;;;;;;;13.56;42.88;100232.88;4892713;29;20044;-68
2022/09/10 09:49:10;;;;;;;4.82;2.20;;;;;;;13.64;43.40;100245.81;4866521;29;20511;-65
2022/09/10 09:51:36;;;;;;;5.53;2.40;;;;;;;13.64;43.18;100242.34;4872327;29;20040;-69
2022/09/10 09:54:26;;;;;;;2.08;1.88;;;;;;;13.60;43.04;100239.34;4896759;29;20601;-67
2022/09/10 09:56:57;;;;;;;2.10;1.90;;;;;;;13.60;43.25;100234.03;4895852;29;20051;-69
2022/09/10 09:59:31;;;;;;;4.28;1.90;;;;;;;13.66;43.43;100237.59;4895627;29;20311;-67
2022/09/10 10:02:17;;;;;;;2.78;2.00;;;;;;;13.64;43.35;100232.50;4895530;29;20116;-67
2022/09/10 10:05:08;;;;;;;4.70;2.58;;;;;;;13.63;43.05;100224.75;4891737;29;20056;-67
2022/09/10 10:07:34;;;;;;;;;;;;;;;13.60;43.17;100227.88;4887513;29;20037;-69
2022/09/10 10:10:03;;;;;;;3.55;2.10;;;;;;;13.59;42.89;100231.59;4889901;29;19927;-68
2022/09/10 10:12:31;;;;;;;3.87;2.43;;;;;;;13.50;42.89;100230.34;4895126;29;20057;-69
2022/09/10 10:14:58;;;;;;;4.60;2.40;;;;;;;13.50;43.44;100223.19;4891573;29;20076;-69
2022/09/10 10:17:28;;;;;;;3.45;2.05;;;;;;;13.49;43.73;100216.22;4892382;29;20071;-69
2022/09/10 10:20:08;;;;;;;3.10;2.10;;;;;;;13.50;43.61;100211.69;4880113;29;20044;-71
2022/09/10 10:22:36;;;;;;;5.82;2.60;;;;;;;13.51;43.49;100214.13;4848562;29;20037;-71
2022/09/10 10:25:04;;;;;;;3.20;2.00;;;;;;;13.52;43.76;100199.75;4869157;29;20192;-69
2022/09/10 10:27:40;;;;;;;3.28;2.00;;;;;;;13.52;43.00;100212.28;4873876;29;20049;-70
2022/09/10 10:30:15;;;;;;;2.40;2.00;;;;;;;13.52;43.12;100206.94;4883874;29;20036;-71
2022/09/10 10:32:43;;;;;;;2.50;2.03;;;;;;;13.52;42.77;100205.09;4876481;29;20103;-72
2022/09/10 10:35:32;;;;;;;2.40;2.17;;;;;;;13.47;43.04;100205.00;4882788;29;20052;-69
2022/09/10 10:38:24;;;;;;;3.05;2.20;;;;;;;13.48;43.09;100195.97;4887235;29;20061;-65
2022/09/10 10:41:13;;;;;;;5.07;2.42;;;;;;;13.45;43.40;100193.78;4888419;29;20058;-68
2022/09/10 10:43:52;;;;;;;2.83;2.08;;;;;;;13.39;43.28;100184.06;4885679;29;20117;-68
2022/09/10 10:46:27;;;;;;;3.78;2.72;;;;;;;13.45;43.19;100188.44;4883213;29;20041;-70
2022/09/10 10:49:43;;;;;;;2.42;2.05;;;;;;;13.50;43.04;100185.88;4884823;29;20048;-70
2022/09/10 10:52:24;;;;;;;3.92;2.20;;;;;;;13.48;42.67;100177.31;4869628;29;20049;-69
2022/09/10 10:55:08;;;;;;;2.53;2.30;;;;;;;13.55;42.85;100175.31;4875014;29;20541;-68
2022/09/10 10:57:52;;;;;;;3.65;2.10;;;;;;;13.59;43.12;100181.00;4882184;29;20091;-68
2022/09/10 11:00:19;;;;;;;3.40;2.20;;;;;;;13.62;42.37;100169.88;4886735;29;20045;-68
2022/09/10 11:03:06;;;;;;;5.30;2.67;;;;;;;13.63;42.19;100169.59;4892094;29;20095;-64
2022/09/10 11:05:47;;;;;;;3.58;2.40;;;;;;;13.66;42.66;100160.34;4896132;29;20466;-68
2022/09/10 11:08:33;;;;;;;4.63;2.38;;;;;;;13.67;42.36;100153.94;4848069;29;20146;-66
2022/09/10 11:11:16;;;;;;;3.55;2.33;;;;;;;13.73;42.27;100158.31;4864725;29;20053;-68
2022/09/10 11:13:50;;;;;;;4.75;2.35;;;;;;;13.74;42.62;100162.63;4891817;29;20044;-68
2022/09/10 11:16:40;;;;;;;5.22;2.00;;;;;;;13.79;42.42;100146.69;4888614;29;20049;-68
2022/09/10 11:19:25;;;;;;;;;;;;;;;13.85;42.67;100144.94;4872224;29;20068;-68
2022/09/10 11:21:58;;;;;;;2.70;2.00;;;;;;;13.86;42.58;100141.25;4890530;29;19950;-68
2022/09/10 11:24:28;;;;;;;4.35;2.08;;;;;;;13.90;42.33;100133.56;4876470;29;20052;-68
2022/09/10 11:26:54;;;;;;;4.10;2.13;;;;;;;13.94;42.74;100134.69;4860886;29;20107;-68
2022/09/10 11:29:30;;;;;;;3.42;2.00;;;;;;;13.98;42.25;100136.66;4875978;29;20049;-68
2022/09/10 11:32:18;;;;;;;4.38;2.50;;;;;;;13.91;41.77;100119.19;4881836;29;20093;-68
2022/09/10 11:35:18;;;;;;;3.45;2.00;;;;;;;13.94;42.06;100134.69;4882875;29;20057;-67
2022/09/10 11:37:47;;;;;;;5.25;2.10;;;;;;;13.96;42.28;100129.94;4886093;29;20137;-67
2022/09/10 11:40:18;;;;;;;3.28;2.20;;;;;;;13.96;42.49;100127.28;4898404;29;20044;-65
2022/09/10 11:42:55;;;;;;;5.57;2.47;;;;;;;13.99;42.52;100124.94;4882441;29;20081;-67
2022/09/10 11:45:50;;;;;;;3.65;2.53;;;;;;;14.03;42.41;100126.06;4876956;29;20049;-68